Time;durP1;ratioP1;P1;durP2;ratioP2;P2;SDS_P1;SDS_P2;PMS_P1;PMS_P2;Temp;Humidity;BMP_temperature;BMP_pressure;BME280_temperature;BME280_humidity;BME280_pressure;Samples;Min_cycle;Max_cycle;Signal;HPM_P1;HPM_P2
2023/12/29 00:02:17;;;;;;;4.70;2.30;;;;;;;5.10;100.00;100657.61;104242;1264;60177;-57
2023/12/29 00:04:44;;;;;;;4.80;3.30;;;;;;;5.13;100.00;100661.13;103980;1264;60363;-58
2023/12/29 00:07:11;;;;;;;4.40;3.50;;;;;;;5.16;100.00;100664.14;104231;1263;72946;-56
2023/12/29 00:09:40;;;;;;;5.40;3.60;;;;;;;5.18;100.00;100668.04;104015;1270;67963;-57
2023/12/29 00:12:08;;;;;;;4.90;4.00;;;;;;;5.18;100.00;100664.48;104056;1269;72719;-58
2023/12/29 00:14:39;;;;;;;3.70;3.30;;;;;;;5.18;100.00;100666.96;103995;1271;59665;-57
2023/12/29 00:17:06;;;;;;;3.00;2.70;;;;;;;5.18;100.00;100665.02;104308;1261;61305;-58
2023/12/29 00:19:34;;;;;;;4.30;2.40;;;;;;;5.18;100.00;100668.38;104202;1261;71879;-57
2023/12/29 00:22:02;;;;;;;5.90;3.30;;;;;;;5.18;100.00;100665.73;104203;1261;67440;-56
2023/12/29 00:24:33;;;;;;;4.40;3.00;;;;;;;5.19;100.00;100664.45;108426;1260;71654;-58
2023/12/29 00:27:01;;;;;;;5.60;3.60;;;;;;;5.20;100.00;100664.08;108423;1259;59212;-58
2023/12/29 00:29:32;;;;;;;5.20;3.30;;;;;;;5.21;100.00;100667.26;108453;1260;61659;-59
2023/12/29 00:32:00;;;;;;;8.10;4.30;;;;;;;5.23;100.00;100665.11;108695;1257;73128;-59
2023/12/29 00:34:28;;;;;;;4.40;4.00;;;;;;;5.23;100.00;100662.98;108690;1258;66982;-58
2023/12/29 00:36:55;;;;;;;3.60;2.80;;;;;;;5.22;100.00;100662.45;108722;1256;72731;-58
2023/12/29 00:39:30;;;;;;;5.50;3.10;;;;;;;5.22;100.00;100657.65;108617;1257;59665;-59
2023/12/29 00:41:58;;;;;;;4.30;3.10;;;;;;;5.24;100.00;100657.10;108639;1255;58859;-58
2023/12/29 00:44:26;;;;;;;6.80;2.60;;;;;;;5.25;100.00;100651.56;108722;1256;71515;-58
2023/12/29 00:46:53;;;;;;;5.50;3.50;;;;;;;5.27;100.00;100645.65;108809;1257;67119;-59
2023/12/29 00:49:21;;;;;;;5.50;2.90;;;;;;;5.30;100.00;100645.25;108759;1255;71405;-59
2023/12/29 00:51:48;;;;;;;6.60;3.70;;;;;;;5.35;100.00;100644.33;108697;1257;59010;-58
2023/12/29 00:54:16;;;;;;;5.50;3.60;;;;;;;5.38;100.00;100644.64;108619;1256;60139;-59
2023/12/29 00:56:50;;;;;;;4.00;3.20;;;;;;;5.39;100.00;100645.50;108782;1257;72046;-59
2023/12/29 00:59:18;;;;;;;5.00;3.40;;;;;;;5.40;100.00;100643.36;108682;1257;66964;-58
2023/12/29 01:01:46;;;;;;;7.00;4.00;;;;;;;5.39;100.00;100641.23;107338;1257;73364;-56
2023/12/29 01:04:13;;;;;;;4.00;3.50;;;;;;;5.37;100.00;100633.77;104568;1260;59884;-58
2023/12/29 01:06:41;;;;;;;3.40;3.00;;;;;;;5.36;100.00;100626.34;105857;1260;59753;-55
2023/12/29 01:09:10;;;;;;;4.10;3.00;;;;;;;5.35;100.00;100628.48;106568;1260;70742;-57
2023/12/29 01:11:37;;;;;;;2.90;2.50;;;;;;;5.37;100.00;100630.23;104584;1258;66042;-58
2023/12/29 01:14:05;;;;;;;6.50;3.60;;;;;;;5.40;100.00;100626.64;104421;1257;71589;-56
2023/12/29 01:16:33;;;;;;;7.50;4.30;;;;;;;5.42;100.00;100629.45;106375;1257;59744;-57
2023/12/29 01:19:01;;;;;;;7.70;3.40;;;;;;;5.45;100.00;100631.89;104401;1261;59650;-56
2023/12/29 01:21:28;;;;;;;5.30;3.50;;;;;;;5.46;100.00;100631.88;105046;1258;71873;-58
2023/12/29 01:23:56;;;;;;;6.90;4.90;;;;;;;5.47;100.00;100630.45;104545;1261;67107;-58
2023/12/29 01:26:23;;;;;;;9.90;5.50;;;;;;;5.47;100.00;100627.95;104388;1258;71824;-59
2023/12/29 01:28:50;;;;;;;9.40;4.90;;;;;;;5.47;100.00;100623.68;104280;1257;59504;-56
2023/12/29 01:31:18;;;;;;;4.70;4.00;;;;;;;5.46;100.00;100619.24;104415;1258;60061;-57
2023/12/29 01:33:46;;;;;;;5.10;3.80;;;;;;;5.44;100.00;100617.15;104520;1257;71999;-58
2023/12/29 01:36:18;;;;;;;6.20;3.90;;;;;;;5.43;100.00;100618.42;106347;1257;66359;-57
2023/12/29 01:38:51;;;;;;;7.50;3.40;;;;;;;5.43;100.00;100617.88;104846;1259;71366;-56
2023/12/29 01:41:22;;;;;;;6.60;4.10;;;;;;;5.45;100.00;100612.86;104584;1263;62486;-58
2023/12/29 01:43:59;;;;;;;7.70;3.90;;;;;;;5.46;100.00;100613.19;104393;1258;60126;-56
2023/12/29 01:46:31;;;;;;;4.50;4.00;;;;;;;5.49;100.00;100612.63;104496;1257;71761;-56
2023/12/29 01:48:59;;;;;;;7.70;4.40;;;;;;;5.50;100.00;100615.11;105053;1257;67200;-54
2023/12/29 01:51:27;;;;;;;5.50;4.10;;;;;;;5.52;100.00;100611.18;104943;1263;74338;-59
2023/12/29 01:53:55;;;;;;;8.00;4.70;;;;;;;5.51;100.00;100609.58;104553;1257;59779;-57
2023/12/29 01:56:22;;;;;;;7.50;5.10;;;;;;;5.49;100.00;100603.19;104361;1261;59922;-59
2023/12/29 01:58:49;;;;;;;5.00;4.50;;;;;;;5.48;100.00;100609.44;104281;1255;73295;-57
2023/12/29 02:01:17;;;;;;;5.20;4.20;;;;;;;5.47;100.00;100613.00;104439;1257;65667;-57
2023/12/29 02:03:45;;;;;;;7.70;3.10;;;;;;;5.47;100.00;100615.14;104504;1257;71470;-56
2023/12/29 02:06:13;;;;;;;5.50;4.30;;;;;;;5.47;100.00;100612.46;104590;1257;60650;-60
2023/12/29 02:08:40;;;;;;;6.90;4.30;;;;;;;5.49;100.00;100612.98;104779;1260;60455;-57
2023/12/29 02:11:09;;;;;;;12.20;4.40;;;;;;;5.50;100.00;100607.80;104273;1257;73832;-57
2023/12/29 02:13:36;;;;;;;6.20;4.30;;;;;;;5.53;100.00;100610.95;104664;1261;65932;-57
2023/12/29 02:16:18;;;;;;;7.40;4.70;;;;;;;5.55;100.00;100608.96;104500;1257;71486;-57
2023/12/29 02:18:46;;;;;;;9.80;5.70;;;;;;;5.56;100.00;100608.42;104711;1258;60525;-57
2023/12/29 02:21:13;;;;;;;8.00;4.40;;;;;;;5.56;100.00;100600.94;104486;1258;60438;-58
2023/12/29 02:23:41;;;;;;;11.80;5.10;;;;;;;5.55;100.00;100594.91;104580;1258;74341;-58
2023/12/29 02:26:10;;;;;;;5.90;3.10;;;;;;;5.56;100.00;100594.53;105688;1257;67782;-56
2023/12/29 02:28:39;;;;;;;6.80;4.00;;;;;;;5.57;100.00;100597.20;104483;1258;71447;-58
2023/12/29 02:31:11;;;;;;;5.60;3.00;;;;;;;5.57;100.00;100595.59;104667;1256;61642;-59
2023/12/29 02:33:40;;;;;;;4.50;4.10;;;;;;;5.58;100.00;100599.48;105066;1254;60452;-56
2023/12/29 02:36:08;;;;;;;5.80;4.20;;;;;;;5.60;100.00;100594.84;105190;1258;72562;-55
2023/12/29 02:38:36;;;;;;;5.70;4.30;;;;;;;5.62;100.00;100598.18;104225;1256;66062;-52
2023/12/29 02:41:03;;;;;;;5.50;4.00;;;;;;;5.65;100.00;100593.16;104351;1263;71677;-56
2023/12/29 02:43:32;;;;;;;5.10;4.10;;;;;;;5.66;100.00;100592.79;104361;1258;60447;-57
2023/12/29 02:45:59;;;;;;;6.50;4.80;;;;;;;5.67;100.00;100593.85;104825;1260;60424;-56
2023/12/29 02:48:26;;;;;;;5.10;3.10;;;;;;;5.66;100.00;100588.52;104364;1258;73925;-59
2023/12/29 02:50:54;;;;;;;8.70;3.80;;;;;;;5.67;100.00;100591.00;105136;1257;66822;-56
2023/12/29 02:53:21;;;;;;;6.30;3.50;;;;;;;5.66;100.00;100588.33;104282;1258;74871;-56
2023/12/29 02:55:48;;;;;;;4.00;3.30;;;;;;;5.66;100.00;100586.55;104510;1256;60814;-56
2023/12/29 02:58:16;;;;;;;4.80;2.90;;;;;;;5.68;100.00;100593.30;104537;1258;60529;-57
2023/12/29 03:00:43;;;;;;;7.90;4.60;;;;;;;5.70;100.00;100592.35;104533;1257;74552;-58
2023/12/29 03:03:11;;;;;;;5.20;4.00;;;;;;;5.72;100.00;100599.63;104314;1256;65758;-57
2023/12/29 03:05:38;;;;;;;8.10;4.10;;;;;;;5.74;100.00;100597.48;104608;1261;70847;-56
2023/12/29 03:08:05;;;;;;;5.10;4.60;;;;;;;5.75;100.00;100594.98;104121;1257;60421;-56
2023/12/29 03:10:33;;;;;;;6.60;4.20;;;;;;;5.75;100.00;100598.17;104617;1260;60445;-56
2023/12/29 03:13:00;;;;;;;5.40;4.20;;;;;;;5.74;100.00;100596.41;104412;1256;73843;-57
2023/12/29 03:15:27;;;;;;;8.00;3.50;;;;;;;5.73;100.00;100599.63;104417;1258;65799;-56
2023/12/29 03:17:55;;;;;;;3.70;3.10;;;;;;;5.73;100.00;100597.48;104448;1261;72696;-51
2023/12/29 03:20:22;;;;;;;6.40;3.00;;;;;;;5.73;100.00;100593.74;105517;1260;60477;-59
2023/12/29 03:22:50;;;;;;;5.10;3.00;;;;;;;5.74;100.00;100597.84;104716;1260;60429;-57
2023/12/29 03:25:17;;;;;;;5.30;3.90;;;;;;;5.74;100.00;100601.03;108725;1255;74181;-59
2023/12/29 03:27:45;;;;;;;5.20;4.60;;;;;;;5.74;100.00;100599.62;108737;1255;67066;-58
2023/12/29 03:30:12;;;;;;;5.70;4.50;;;;;;;5.74;100.00;100599.27;108686;1255;72677;-58
2023/12/29 03:32:40;;;;;;;5.80;3.70;;;;;;;5.74;100.00;100597.13;108748;1253;60619;-58
2023/12/29 03:35:07;;;;;;;5.10;3.20;;;;;;;5.73;100.00;100599.09;108693;1255;61664;-58
2023/12/29 03:37:35;;;;;;;5.90;4.70;;;;;;;5.71;100.00;100592.88;108739;1255;72971;-58
2023/12/29 03:40:02;;;;;;;5.30;3.20;;;;;;;5.69;100.00;100597.55;108775;1255;67070;-59
2023/12/29 03:42:30;;;;;;;4.80;3.20;;;;;;;5.69;100.00;100595.05;105700;1256;71483;-58
2023/12/29 03:44:58;;;;;;;4.60;3.10;;;;;;;5.69;100.00;100593.45;104382;1256;60706;-55
2023/12/29 03:47:25;;;;;;;6.20;3.10;;;;;;;5.69;100.00;100597.54;108807;1255;61989;-59
2023/12/29 03:49:52;;;;;;;10.80;3.30;;;;;;;5.71;100.00;100595.19;108768;1255;72812;-58
2023/12/29 03:52:20;;;;;;;6.10;4.00;;;;;;;5.74;100.00;100595.70;108758;1255;67131;-59
2023/12/29 03:54:47;;;;;;;4.80;3.40;;;;;;;5.76;100.00;100594.07;108760;1256;72786;-59
2023/12/29 03:57:14;;;;;;;7.10;4.10;;;;;;;5.77;100.00;100596.38;108740;1255;58846;-58
2023/12/29 03:59:42;;;;;;;3.80;2.50;;;;;;;5.77;100.00;100604.56;108800;1255;58883;-58
2023/12/29 04:02:09;;;;;;;6.50;3.90;;;;;;;5.76;100.00;100598.16;108782;1255;74320;-58
2023/12/29 04:04:38;;;;;;;5.20;3.80;;;;;;;5.75;100.00;100605.12;108730;1255;65743;-58
2023/12/29 04:07:06;;;;;;;8.30;3.40;;;;;;;5.74;100.00;100602.81;108750;1258;73176;-59
2023/12/29 04:09:33;;;;;;;3.50;2.70;;;;;;;5.74;100.00;100606.02;108717;1255;59614;-58
2023/12/29 04:12:00;;;;;;;4.70;2.20;;;;;;;5.74;100.00;100605.66;107133;1255;60567;-58
2023/12/29 04:14:28;;;;;;;5.10;2.40;;;;;;;5.74;100.00;100597.11;104746;1255;72750;-58
2023/12/29 04:16:55;;;;;;;5.20;2.60;;;;;;;5.75;100.00;100590.34;104926;1256;65759;-58
2023/12/29 04:19:22;;;;;;;3.70;2.50;;;;;;;5.76;100.00;100584.80;104961;1258;74308;-57
2023/12/29 04:21:50;;;;;;;5.40;4.00;;;;;;;5.77;100.00;100582.30;106029;1255;60520;-57
2023/12/29 04:24:17;;;;;;;10.20;8.40;;;;;;;5.77;100.00;100577.85;105132;1260;60397;-57
2023/12/29 04:26:45;;;;;;;24.00;17.20;;;;;;;5.74;100.00;100578.77;104797;1255;73897;-58
2023/12/29 04:29:12;;;;;;;38.30;27.10;;;;;;;5.70;100.00;100583.11;104623;1260;67076;-58
2023/12/29 04:31:40;;;;;;;33.70;24.40;;;;;;;5.65;100.00;100584.08;104887;1256;72731;-59
2023/12/29 04:34:07;;;;;;;18.50;15.70;;;;;;;5.59;100.00;100576.16;104356;1258;60429;-58
2023/12/29 04:36:34;;;;;;;14.20;10.10;;;;;;;5.51;100.00;100574.48;104665;1260;60634;-58
2023/12/29 04:39:02;;;;;;;11.80;7.00;;;;;;;5.45;100.00;100569.23;104769;1257;73906;-56
2023/12/29 04:41:29;;;;;;;3.70;2.70;;;;;;;5.40;100.00;100568.25;104810;1260;66856;-57
2023/12/29 04:43:57;;;;;;;3.80;3.40;;;;;;;5.35;100.00;100565.30;104553;1257;71809;-55
2023/12/29 04:46:24;;;;;;;4.60;3.10;;;;;;;5.31;100.00;100566.23;104566;1258;60554;-58
2023/12/29 04:48:51;;;;;;;5.10;3.40;;;;;;;5.27;100.00;100568.26;104397;1260;60755;-57
2023/12/29 04:51:20;;;;;;;5.90;3.20;;;;;;;5.22;100.00;100571.16;104606;1260;72657;-58
2023/12/29 04:53:50;;;;;;;8.10;5.80;;;;;;;5.18;100.00;100566.61;105664;1256;67464;-57
2023/12/29 04:56:18;;;;;;;22.40;13.60;;;;;;;5.13;100.00;100562.39;104508;1255;74302;-56
2023/12/29 04:58:45;;;;;;;26.30;18.00;;;;;;;5.08;100.00;100559.09;104843;1256;60539;-55
2023/12/29 05:01:12;;;;;;;47.20;22.60;;;;;;;5.02;100.00;100557.73;104792;1260;60425;-56
2023/12/29 05:03:39;;;;;;;48.70;25.60;;;;;;;4.95;100.00;100555.50;104518;1255;74235;-58
2023/12/29 05:06:07;;;;;;;46.70;25.60;;;;;;;4.88;100.00;100557.38;107095;1255;67553;-56
2023/12/29 05:08:34;;;;;;;30.40;17.70;;;;;;;4.83;100.00;100554.78;104726;1255;72521;-57
2023/12/29 05:11:02;;;;;;;22.70;13.40;;;;;;;4.79;100.00;100554.11;104565;1260;60505;-58
2023/12/29 05:13:29;;;;;;;15.40;8.40;;;;;;;4.74;100.00;100550.45;104610;1255;61855;-56
2023/12/29 05:15:56;;;;;;;9.40;6.20;;;;;;;4.71;100.00;100549.93;104791;1260;73954;-56
2023/12/29 05:18:24;;;;;;;7.50;5.70;;;;;;;4.66;100.00;100546.80;104427;1255;66950;-57
2023/12/29 05:20:52;;;;;;;8.90;4.80;;;;;;;4.63;100.00;100539.02;105329;1257;72803;-57
2023/12/29 05:23:19;;;;;;;10.80;6.70;;;;;;;4.58;100.00;100535.34;104638;1255;60580;-58
2023/12/29 05:25:46;;;;;;;18.40;10.50;;;;;;;4.53;100.00;100538.59;104882;1255;60355;-57
2023/12/29 05:28:13;;;;;;;52.00;23.00;;;;;;;4.48;100.00;100531.90;104850;1260;73824;-52
2023/12/29 05:30:41;;;;;;;48.00;22.50;;;;;;;4.42;100.00;100524.49;104503;1255;66035;-58
2023/12/29 05:33:08;;;;;;;37.60;18.60;;;;;;;4.36;100.00;100520.66;104216;1257;71465;-57
2023/12/29 05:35:35;;;;;;;27.30;15.40;;;;;;;4.29;100.00;100510.96;104514;1261;60557;-59
2023/12/29 05:38:03;;;;;;;25.20;13.80;;;;;;;4.24;100.00;100510.33;104573;1260;60365;-57
2023/12/29 05:40:30;;;;;;;18.20;11.60;;;;;;;4.18;100.00;100505.39;104517;1255;74815;-56
2023/12/29 05:42:58;;;;;;;14.90;9.50;;;;;;;4.15;100.00;100510.05;104479;1255;65524;-56
2023/12/29 05:45:25;;;;;;;12.40;7.30;;;;;;;4.13;100.00;100512.73;104737;1258;72710;-57
2023/12/29 05:47:52;;;;;;;10.70;7.70;;;;;;;4.10;100.00;100515.58;104317;1255;60449;-58
2023/12/29 05:50:20;;;;;;;11.70;7.30;;;;;;;4.09;100.00;100518.45;104539;1255;60623;-56
2023/12/29 05:52:51;;;;;;;14.00;8.10;;;;;;;4.07;100.00;100520.27;104593;1257;73871;-57
2023/12/29 05:55:19;;;;;;;12.50;8.60;;;;;;;4.05;100.00;100528.63;104556;1260;66962;-56
2023/12/29 05:57:46;;;;;;;14.30;7.70;;;;;;;4.03;100.00;100528.63;104708;1260;70792;-58
2023/12/29 06:00:15;;;;;;;12.50;7.10;;;;;;;4.01;100.00;100524.91;104441;1258;60542;-56
2023/12/29 06:02:42;;;;;;;8.90;6.00;;;;;;;3.98;100.00;100522.30;104494;1256;60376;-56
2023/12/29 06:05:10;;;;;;;12.60;9.40;;;;;;;3.93;100.00;100518.61;104961;1257;73740;-57
2023/12/29 06:07:38;;;;;;;11.30;8.60;;;;;;;3.90;100.00;100520.08;105632;1256;67757;-57
2023/12/29 06:10:06;;;;;;;9.70;7.20;;;;;;;3.86;100.00;100527.54;105617;1260;71198;-57
2023/12/29 06:12:33;;;;;;;10.60;6.50;;;;;;;3.84;100.00;100522.59;105099;1258;60905;-54
2023/12/29 06:15:01;;;;;;;7.50;5.50;;;;;;;3.81;100.00;100514.46;104535;1258;60459;-57
2023/12/29 06:17:28;;;;;;;8.80;5.10;;;;;;;3.80;100.00;100515.89;104396;1256;74288;-55
2023/12/29 06:19:56;;;;;;;12.40;5.90;;;;;;;3.80;100.00;100515.00;104483;1255;68013;-59
2023/12/29 06:22:23;;;;;;;13.00;8.40;;;;;;;3.80;100.00;100516.42;104732;1255;74316;-59
2023/12/29 06:24:50;;;;;;;21.60;14.00;;;;;;;3.81;100.00;100521.39;104679;1255;60579;-58
2023/12/29 06:27:18;;;;;;;20.40;13.90;;;;;;;3.82;100.00;100517.84;104242;1255;60496;-58
2023/12/29 06:29:45;;;;;;;17.90;12.00;;;;;;;3.83;100.00;100519.24;104692;1257;73849;-57
2023/12/29 06:32:12;;;;;;;15.70;11.40;;;;;;;3.84;100.00;100511.23;104751;1260;67201;-57
2023/12/29 06:34:40;;;;;;;11.70;9.20;;;;;;;3.84;100.00;100504.83;104341;1256;73105;-58
2023/12/29 06:37:07;;;;;;;10.30;6.70;;;;;;;3.84;100.00;100500.21;104539;1256;60433;-57
2023/12/29 06:39:35;;;;;;;8.00;4.10;;;;;;;3.85;100.00;100493.27;104586;1255;60378;-58
2023/12/29 06:42:03;;;;;;;7.20;4.80;;;;;;;3.87;100.00;100494.34;108614;1255;73136;-59
2023/12/29 06:44:30;;;;;;;11.40;4.20;;;;;;;3.89;100.00;100494.69;108756;1255;65536;-58
2023/12/29 06:46:57;;;;;;;7.90;4.30;;;;;;;3.92;100.00;100494.81;108564;1255;73135;-58
2023/12/29 06:49:25;;;;;;;5.80;3.30;;;;;;;3.97;100.00;100499.94;108638;1257;58829;-59
2023/12/29 06:51:52;;;;;;;9.90;5.90;;;;;;;4.01;100.00;100501.12;108564;1255;60201;-58
2023/12/29 06:54:19;;;;;;;10.10;5.20;;;;;;;4.05;100.00;100498.08;108681;1256;72673;-58
2023/12/29 06:56:48;;;;;;;7.80;4.30;;;;;;;4.09;100.00;100496.77;108679;1258;67320;-58
2023/12/29 06:59:16;;;;;;;6.30;4.10;;;;;;;4.13;100.00;100489.64;108859;1255;71765;-58
2023/12/29 07:01:43;;;;;;;5.70;4.50;;;;;;;4.17;100.00;100494.74;108706;1255;59774;-58
2023/12/29 07:04:11;;;;;;;8.00;5.00;;;;;;;4.21;100.00;100501.45;108601;1255;59087;-58
2023/12/29 07:06:38;;;;;;;7.40;5.10;;;;;;;4.26;100.00;100500.16;108704;1255;74358;-59
2023/12/29 07:09:06;;;;;;;9.70;4.50;;;;;;;4.30;100.00;100497.45;108934;1256;66942;-59
2023/12/29 07:11:33;;;;;;;4.20;2.40;;;;;;;4.36;100.00;100505.02;108690;1255;72602;-58
2023/12/29 07:14:01;;;;;;;7.30;4.40;;;;;;;4.41;100.00;100504.61;104945;1260;60453;-55
2023/12/29 07:16:28;;;;;;;7.30;3.70;;;;;;;4.47;100.00;100505.96;104408;1256;60788;-58
2023/12/29 07:18:55;;;;;;;5.20;4.10;;;;;;;4.54;100.00;100509.95;104247;1256;73319;-58
2023/12/29 07:21:23;;;;;;;7.50;5.20;;;;;;;4.61;100.00;100519.48;104343;1256;65716;-59
2023/12/29 07:23:50;;;;;;;7.70;4.70;;;;;;;4.67;100.00;100523.16;104529;1255;72694;-58
2023/12/29 07:26:18;;;;;;;5.40;4.20;;;;;;;4.72;100.00;100528.60;104435;1260;60458;-58
2023/12/29 07:28:45;;;;;;;7.20;5.30;;;;;;;4.76;100.00;100532.64;104619;1260;60514;-59
2023/12/29 07:31:12;;;;;;;5.10;4.00;;;;;;;4.79;100.00;100537.92;104299;1261;74358;-58
2023/12/29 07:33:40;;;;;;;5.70;3.70;;;;;;;4.84;100.00;100541.08;105627;1256;65888;-54
2023/12/29 07:36:07;;;;;;;5.30;3.30;;;;;;;4.89;100.00;100536.20;104721;1259;73143;-58
2023/12/29 07:38:35;;;;;;;3.80;2.70;;;;;;;4.95;100.00;100537.01;104569;1260;61834;-58
2023/12/29 07:41:02;;;;;;;6.30;4.10;;;;;;;5.03;100.00;100531.77;104348;1255;60463;-58
2023/12/29 07:43:31;;;;;;;6.30;3.80;;;;;;;5.12;100.00;100539.27;104574;1256;73900;-57
2023/12/29 07:45:58;;;;;;;5.10;3.40;;;;;;;5.23;100.00;100539.13;104757;1256;65618;-58
2023/12/29 07:48:26;;;;;;;5.90;3.70;;;;;;;5.31;100.00;100549.50;104714;1259;71468;-58
2023/12/29 07:50:53;;;;;;;4.90;3.80;;;;;;;5.39;100.00;100549.40;104697;1256;60446;-57
2023/12/29 07:53:20;;;;;;;4.90;3.50;;;;;;;5.44;100.00;100549.34;104563;1260;60684;-56
2023/12/29 07:55:50;;;;;;;3.90;2.40;;;;;;;5.48;100.00;100555.84;104632;1256;75205;-58
2023/12/29 07:58:17;;;;;;;3.60;3.00;;;;;;;5.53;100.00;100562.55;104975;1260;67065;-56
2023/12/29 08:00:45;;;;;;;5.30;3.10;;;;;;;5.58;100.00;100565.31;104796;1255;72687;-57
2023/12/29 08:03:13;;;;;;;5.80;3.40;;;;;;;5.64;100.00;100568.59;104703;1255;60554;-56
2023/12/29 08:05:40;;;;;;;5.10;3.50;;;;;;;5.71;100.00;100575.26;104627;1255;60513;-58
2023/12/29 08:08:07;;;;;;;3.60;2.70;;;;;;;5.77;100.00;100576.23;104678;1261;74315;-58
2023/12/29 08:10:35;;;;;;;6.40;3.50;;;;;;;5.81;100.00;100582.58;104933;1261;66743;-57
2023/12/29 08:13:02;;;;;;;4.00;3.10;;;;;;;5.83;100.00;100579.70;104805;1259;72718;-55
2023/12/29 08:15:30;;;;;;;5.50;4.50;;;;;;;5.84;100.00;100586.98;104608;1255;60487;-60
2023/12/29 08:17:58;;;;;;;3.70;2.30;;;;;;;5.85;100.00;100591.08;104757;1255;60544;-55
2023/12/29 08:20:26;;;;;;;4.60;3.30;;;;;;;5.86;100.00;100589.12;104493;1260;74332;-57
2023/12/29 08:22:53;;;;;;;5.20;2.60;;;;;;;5.87;100.00;100592.83;104790;1256;66856;-56
2023/12/29 08:25:20;;;;;;;3.10;2.90;;;;;;;5.91;100.00;100589.05;104542;1260;71483;-57
2023/12/29 08:27:48;;;;;;;5.40;2.50;;;;;;;5.94;100.00;100590.96;104228;1255;60715;-57
2023/12/29 08:30:15;;;;;;;4.60;2.40;;;;;;;6.00;100.00;100591.04;104389;1260;60712;-58
2023/12/29 08:32:43;;;;;;;3.90;3.10;;;;;;;6.05;100.00;100597.00;104698;1256;73144;-58
2023/12/29 08:35:11;;;;;;;3.90;2.70;;;;;;;6.09;100.00;100597.84;104964;1261;67081;-56
2023/12/29 08:37:38;;;;;;;3.90;2.70;;;;;;;6.12;100.00;100596.54;104486;1256;73179;-56
2023/12/29 08:40:06;;;;;;;3.20;2.60;;;;;;;6.14;100.00;100592.40;104579;1255;61324;-56
2023/12/29 08:42:33;;;;;;;4.60;2.30;;;;;;;6.17;100.00;100591.10;105054;1255;60507;-56
2023/12/29 08:45:01;;;;;;;6.60;3.00;;;;;;;6.21;100.00;100596.02;105150;1261;74326;-58
2023/12/29 08:47:29;;;;;;;4.00;2.70;;;;;;;6.26;100.00;100594.16;104551;1255;67034;-56
2023/12/29 08:49:57;;;;;;;6.10;3.50;;;;;;;6.30;100.00;100603.00;104563;1261;72727;-58
2023/12/29 08:52:24;;;;;;;3.40;2.80;;;;;;;6.36;100.00;100606.48;104639;1255;62896;-58
2023/12/29 08:54:52;;;;;;;4.80;3.60;;;;;;;6.41;100.00;100610.11;104345;1255;60463;-57
2023/12/29 08:57:20;;;;;;;6.60;3.80;;;;;;;6.45;100.00;100609.33;104518;1255;74087;-56
2023/12/29 08:59:48;;;;;;;4.50;3.50;;;;;;;6.49;100.00;100618.89;104552;1256;67245;-58
2023/12/29 09:02:15;;;;;;;5.40;3.20;;;;;;;6.49;100.00;100618.53;104666;1256;71548;-58
2023/12/29 09:04:43;;;;;;;4.40;2.60;;;;;;;6.48;100.00;100617.13;104590;1255;60976;-56
2023/12/29 09:07:10;;;;;;;5.00;3.00;;;;;;;6.47;100.00;100617.66;105122;1261;60536;-54
2023/12/29 09:09:39;;;;;;;5.50;2.80;;;;;;;6.46;100.00;100611.08;104738;1256;73787;-54
2023/12/29 09:12:06;;;;;;;3.60;2.70;;;;;;;6.47;100.00;100613.39;104658;1255;67404;-57
2023/12/29 09:14:34;;;;;;;3.40;2.70;;;;;;;6.48;100.00;100611.95;104524;1256;72688;-57
2023/12/29 09:17:01;;;;;;;4.60;3.00;;;;;;;6.49;100.00;100606.77;104844;1256;60604;-60
2023/12/29 09:19:29;;;;;;;3.80;2.80;;;;;;;6.50;100.00;100605.67;104314;1258;60317;-56
2023/12/29 09:22:06;;;;;;;4.90;3.00;;;;;;;6.51;100.00;100599.96;104470;1256;74370;-59
2023/12/29 09:24:33;;;;;;;4.70;3.30;;;;;;;6.51;100.00;100594.60;108359;1260;67328;-59
2023/12/29 09:27:00;;;;;;;6.20;3.50;;;;;;;6.49;100.00;100595.52;104261;1260;74964;-57
2023/12/29 09:29:28;;;;;;;4.60;3.20;;;;;;;6.47;100.00;100587.35;104487;1260;60936;-57
2023/12/29 09:31:55;;;;;;;3.40;2.50;;;;;;;6.46;100.00;100587.20;104448;1260;60535;-57
2023/12/29 09:34:22;;;;;;;7.00;2.70;;;;;;;6.46;100.00;100595.56;104678;1256;72638;-56
2023/12/29 09:36:50;;;;;;;4.20;2.20;;;;;;;6.48;100.00;100595.55;104532;1260;66364;-57
2023/12/29 09:39:18;;;;;;;5.30;3.00;;;;;;;6.51;100.00;100591.94;104419;1255;71582;-59
2023/12/29 09:41:46;;;;;;;10.40;3.80;;;;;;;6.54;100.00;100593.64;104431;1260;60554;-57
2023/12/29 09:44:14;;;;;;;3.50;3.00;;;;;;;6.58;100.00;100596.78;104577;1256;60525;-57
2023/12/29 09:46:42;;;;;;;3.30;2.50;;;;;;;6.61;100.00;100596.39;104225;1255;76376;-58
2023/12/29 09:49:09;;;;;;;6.30;4.00;;;;;;;6.64;100.00;100599.17;108711;1255;68807;-58
2023/12/29 09:51:38;;;;;;;4.00;2.70;;;;;;;6.66;100.00;100599.13;108571;1255;72463;-58
2023/12/29 09:54:05;;;;;;;3.70;2.40;;;;;;;6.68;100.00;100602.30;108641;1255;59721;-58
2023/12/29 09:56:33;;;;;;;4.60;2.80;;;;;;;6.72;100.00;100606.88;108776;1259;63079;-58
2023/12/29 09:59:00;;;;;;;3.60;2.50;;;;;;;6.76;100.00;100601.78;108733;1255;72658;-58
2023/12/29 10:01:29;;;;;;;3.80;2.90;;;;;;;6.83;100.00;100610.73;108618;1261;66813;-57
2023/12/29 10:03:57;;;;;;;2.70;2.20;;;;;;;6.91;100.00;100606.33;108727;1256;71183;-58
2023/12/29 10:06:25;;;;;;;6.30;3.10;;;;;;;6.98;100.00;100599.05;108798;1255;61115;-58
2023/12/29 10:08:52;;;;;;;4.50;3.30;;;;;;;7.04;100.00;100601.43;108790;1255;59751;-58
2023/12/29 10:13:42;;;;;;;4.00;2.70;;;;;;;7.10;100.00;100673.38;101804;1297;600446;-56
2023/12/29 10:16:24;;;;;;;4.00;3.20;;;;;;;7.14;100.00;100705.80;103671;1267;62260;-59
2023/12/29 10:19:18;;;;;;;5.90;3.40;;;;;;;7.20;100.00;100698.19;103747;1271;59708;-57
2023/12/29 10:21:54;;;;;;;4.50;3.30;;;;;;;7.25;100.00;100691.13;103638;1267;72718;-55
2023/12/29 10:24:22;;;;;;;5.00;2.70;;;;;;;7.25;100.00;100681.13;105217;1267;65707;-57
2023/12/29 10:26:50;;;;;;;3.90;2.70;;;;;;;7.25;100.00;100666.65;103568;1273;222528;-57
2023/12/29 10:29:18;;;;;;;4.30;2.20;;;;;;;7.27;100.00;100658.41;103906;1270;61767;-58
2023/12/29 10:31:46;;;;;;;7.50;3.50;;;;;;;7.31;100.00;100656.73;104150;1271;59387;-56
2023/12/29 10:34:28;;;;;;;4.00;2.40;;;;;;;7.35;100.00;100657.17;104040;1271;72833;-58
2023/12/29 10:36:56;;;;;;;5.20;2.80;;;;;;;7.41;100.00;100664.72;105090;1270;66143;-57
2023/12/29 10:39:24;;;;;;;3.90;2.60;;;;;;;7.46;100.00;100661.23;104462;1270;72729;-57
2023/12/29 10:42:10;;;;;;;5.90;3.10;;;;;;;7.49;100.00;100655.98;104018;1268;59820;-58
2023/12/29 10:44:40;;;;;;;3.90;2.20;;;;;;;7.52;100.00;100665.02;103827;1267;59756;-58
2023/12/29 10:47:11;;;;;;;5.00;2.70;;;;;;;7.54;100.00;100653.21;103766;1264;73716;-58
2023/12/29 10:49:39;;;;;;;5.60;2.50;;;;;;;7.55;100.00;100654.08;103793;1267;66204;-57
2023/12/29 10:52:14;;;;;;;5.90;3.10;;;;;;;7.54;100.00;100650.17;104605;1267;71547;-58
2023/12/29 10:54:42;;;;;;;;;;;;;;;7.57;100.00;100651.70;104996;1269;61031;-57
2023/12/29 10:57:11;;;;;;;3.30;2.30;;;;;;;7.61;100.00;100651.08;104048;1266;60467;-57
2023/12/29 10:59:39;;;;;;;8.60;2.70;;;;;;;7.68;100.00;100655.77;103591;1268;73175;-57
2023/12/29 11:02:08;;;;;;;2.40;2.10;;;;;;;7.72;100.00;100656.75;103867;1271;66772;-60
2023/12/29 11:04:36;;;;;;;2.30;1.80;;;;;;;7.75;100.00;100656.48;103809;1267;72461;-57
2023/12/29 11:07:03;;;;;;;2.50;1.90;;;;;;;7.78;100.00;100660.52;103941;1265;61184;-57
2023/12/29 11:09:32;;;;;;;3.20;1.90;;;;;;;7.83;100.00;100659.70;105931;1264;59673;-58
2023/12/29 11:12:01;;;;;;;5.60;2.20;;;;;;;7.87;100.00;100664.42;104351;1264;73977;-58
2023/12/29 11:14:29;;;;;;;4.70;2.90;;;;;;;7.89;100.00;100659.74;104002;1262;66956;-58
2023/12/29 11:16:58;;;;;;;3.00;2.70;;;;;;;7.90;100.00;100662.22;105847;1270;73353;-58
2023/12/29 11:19:28;;;;;;;3.90;2.70;;;;;;;7.92;100.00;100664.30;104794;1265;60287;-58
2023/12/29 11:21:56;;;;;;;4.80;2.90;;;;;;;7.92;100.00;100657.71;104155;1266;59759;-58